createdAt,value
2022-12-08T00:16:48.755Z,13.48
2022-12-08T00:18:50.713Z,11.88
2022-12-08T00:20:57.202Z,19.75
2022-12-08T00:22:59.083Z,11.85
2022-12-08T00:25:01.038Z,11.20
2022-12-08T00:27:03.084Z,11.07
2022-12-08T00:29:05.648Z,12.15
2022-12-08T00:31:09.623Z,11.73
2022-12-08T00:33:12.575Z,12.25
2022-12-08T00:35:14.645Z,12.20
2022-12-08T00:39:18.755Z,11.15
2022-12-08T00:41:43.538Z,9.98
2022-12-08T00:43:45.439Z,11.18
2022-12-08T00:45:47.464Z,11.30
2022-12-08T00:49:51.311Z,10.18
2022-12-08T00:51:53.323Z,11.88
2022-12-08T00:55:56.920Z,10.63
2022-12-08T00:58:01.343Z,10.85
2022-12-08T01:00:04.120Z,11.05
2022-12-08T01:02:06.271Z,12.63
2022-12-08T01:04:11.904Z,12.30
2022-12-08T01:06:13.856Z,11.85
2022-12-08T01:10:17.890Z,12.80
2022-12-08T01:12:19.822Z,12.32
2022-12-08T01:14:21.873Z,11.65
2022-12-08T01:18:30.535Z,11.00
2022-12-08T01:20:33.394Z,10.90
2022-12-08T01:22:36.165Z,11.10
2022-12-08T01:24:38.053Z,11.82
2022-12-08T01:26:40.564Z,12.18
2022-12-08T01:28:43.406Z,12.02
2022-12-08T01:30:45.431Z,11.50
2022-12-08T01:34:49.429Z,12.10
2022-12-08T01:36:51.372Z,12.23
2022-12-08T01:38:54.382Z,11.27
2022-12-08T01:40:56.229Z,12.90
2022-12-08T01:42:58.118Z,12.68
2022-12-08T01:45:02.985Z,14.25
2022-12-08T01:47:05.052Z,13.57
2022-12-08T01:51:14.911Z,12.55
2022-12-08T01:53:24.072Z,12.98
2022-12-08T01:55:33.106Z,14.20
2022-12-08T01:57:41.525Z,14.07
2022-12-08T01:59:48.397Z,14.52
2022-12-08T04:17:56.757Z,23.10
2022-12-08T04:19:58.620Z,29.92
2022-12-08T04:22:00.479Z,74.78
2022-12-08T04:24:02.685Z,20.85
2022-12-08T04:26:05.491Z,31.13
2022-12-08T04:28:07.432Z,21.70
2022-12-08T04:30:09.847Z,26.15
2022-12-08T04:32:11.692Z,17.63
2022-12-08T04:34:13.641Z,49.53
2022-12-08T04:36:15.716Z,28.85
2022-12-08T04:40:19.633Z,18.73
2022-12-08T04:42:21.486Z,19.95
2022-12-08T04:44:23.313Z,18.15
2022-12-08T04:46:25.252Z,22.73
2022-12-08T04:50:29.020Z,17.20
2022-12-08T04:52:30.863Z,18.17
2022-12-08T04:54:32.886Z,21.92
2022-12-08T04:58:36.454Z,21.75
2022-12-08T05:00:38.333Z,22.10
2022-12-08T05:02:40.550Z,21.88
2022-12-08T05:04:42.622Z,19.45
2022-12-08T05:08:46.251Z,24.00
2022-12-08T05:10:48.120Z,27.10
2022-12-08T05:12:50.006Z,19.42
2022-12-08T05:14:52.008Z,40.28
2022-12-08T05:18:55.651Z,46.50
2022-12-08T05:20:57.556Z,18.67
2022-12-08T05:22:59.465Z,19.65
2022-12-08T05:25:01.580Z,26.42
2022-12-08T05:27:03.655Z,31.55
2022-12-08T05:31:07.405Z,21.88
2022-12-08T05:35:11.206Z,22.23
2022-12-08T05:39:15.362Z,24.35
2022-12-08T05:41:21.043Z,24.27
2022-12-08T05:43:23.012Z,28.27
2022-12-08T05:47:28.117Z,24.05
2022-12-08T05:49:31.669Z,21.77
2022-12-08T05:51:33.749Z,26.50
2022-12-08T05:53:35.572Z,21.45
2022-12-08T05:55:37.455Z,37.50
2022-12-08T05:57:39.303Z,55.95
2022-12-08T05:59:41.186Z,40.78
2022-12-08T06:01:43.213Z,23.45
2022-12-08T08:13:39.746Z,32.28
2022-12-08T08:17:43.485Z,49.17
2022-12-08T08:19:46.659Z,34.38
2022-12-08T08:21:48.526Z,41.22
2022-12-08T08:23:50.368Z,45.67
2022-12-08T08:25:52.440Z,47.20
2022-12-08T08:29:56.268Z,40.08
2022-12-08T08:31:58.170Z,39.22
2022-12-08T08:34:04.963Z,38.92
2022-12-08T08:36:08.532Z,35.65
2022-12-08T08:38:10.492Z,33.63
2022-12-08T08:40:12.729Z,35.55
2022-12-08T08:42:14.616Z,32.13
2022-12-08T08:44:16.496Z,35.63
2022-12-08T08:46:18.424Z,30.77
2022-12-08T08:50:22.445Z,42.00
2022-12-08T08:52:24.363Z,34.28
2022-12-08T08:54:28.196Z,44.67
2022-12-08T08:56:30.204Z,40.53
2022-12-08T09:00:33.897Z,37.70
2022-12-08T09:02:36.929Z,41.72
2022-12-08T09:04:38.956Z,34.45
2022-12-08T09:08:43.935Z,29.13
2022-12-08T09:10:45.927Z,30.73
2022-12-08T09:14:49.634Z,41.67
2022-12-08T09:18:53.695Z,38.20
2022-12-08T09:20:56.113Z,31.23
2022-12-08T09:22:57.990Z,54.58
2022-12-08T09:25:00.257Z,34.33
2022-12-08T09:27:02.203Z,61.70
2022-12-08T09:29:04.109Z,31.38
2022-12-08T09:31:06.225Z,40.47
2022-12-08T09:33:08.143Z,43.20
2022-12-08T09:35:10.258Z,39.22
2022-12-08T09:37:12.194Z,45.30
2022-12-08T09:39:14.188Z,56.60
2022-12-08T09:41:22.614Z,54.22
2022-12-08T09:43:47.791Z,50.00
2022-12-08T09:45:51.837Z,62.10
2022-12-08T09:48:15.137Z,55.50
2022-12-08T09:50:32.190Z,59.92
2022-12-08T09:52:41.995Z,38.90
2022-12-08T09:54:44.098Z,39.13
2022-12-08T09:56:47.556Z,37.30
2022-12-08T09:59:01.735Z,45.45
2022-12-08T10:01:03.678Z,54.42
2022-12-08T10:03:16.444Z,38.15
2022-12-08T10:05:18.978Z,36.05
2022-12-08T12:15:17.702Z,34.80
2022-12-08T12:17:30.140Z,59.83
2022-12-08T12:19:38.614Z,44.97
2022-12-08T12:21:44.701Z,32.45
2022-12-08T12:23:53.810Z,41.60
2022-12-08T12:26:01.232Z,36.55
2022-12-08T12:28:07.076Z,33.75
2022-12-08T12:30:20.166Z,39.33
2022-12-08T12:32:23.654Z,40.55
2022-12-08T12:34:33.032Z,46.45
2022-12-08T12:36:59.133Z,49.60
2022-12-08T12:39:01.594Z,34.47
2022-12-08T12:41:06.088Z,30.10
2022-12-08T12:43:29.510Z,29.63
2022-12-08T12:45:34.207Z,32.63
2022-12-08T12:47:58.960Z,27.25
2022-12-08T12:50:08.376Z,38.03
2022-12-08T12:52:10.485Z,36.45
2022-12-08T12:56:48.280Z,32.00
2022-12-08T12:58:54.359Z,27.42
2022-12-08T13:01:14.052Z,34.97
2022-12-08T13:03:17.754Z,35.13
2022-12-08T13:05:49.554Z,35.78
2022-12-08T13:07:51.469Z,38.70
2022-12-08T13:10:20.220Z,37.80
2022-12-08T13:12:24.531Z,36.25
2022-12-08T13:14:28.510Z,36.50
2022-12-08T13:16:39.586Z,34.63
2022-12-08T13:18:49.472Z,37.15
2022-12-08T13:21:09.352Z,29.00
2022-12-08T13:23:39.479Z,30.98
2022-12-08T13:25:44.054Z,32.58
2022-12-08T13:27:53.668Z,32.90
2022-12-08T13:30:46.928Z,29.35
2022-12-08T13:33:18.260Z,34.20
2022-12-08T13:35:20.599Z,34.33
2022-12-08T13:39:40.081Z,26.55
2022-12-08T13:41:49.427Z,28.27
2022-12-08T13:55:01.371Z,39.60
2022-12-08T13:59:09.526Z,36.45
2022-12-08T14:01:22.093Z,42.13
2022-12-08T16:17:16.398Z,57.55
2022-12-08T16:19:19.253Z,85.65
2022-12-08T16:21:53.273Z,52.15
2022-12-08T16:23:45.526Z,102.50
2022-12-08T16:26:17.180Z,43.10
2022-12-08T16:28:45.268Z,87.25
2022-12-08T16:30:32.225Z,40.78
2022-12-08T16:34:35.902Z,41.63
2022-12-08T16:36:37.852Z,44.05
2022-12-08T16:38:39.839Z,50.22
2022-12-08T16:41:04.291Z,35.45
2022-12-08T16:43:06.178Z,34.00
2022-12-08T16:45:15.429Z,33.00
2022-12-08T16:47:17.320Z,32.92
2022-12-08T16:49:19.334Z,35.00
2022-12-08T16:53:28.981Z,34.38
2022-12-08T16:55:31.548Z,35.33
2022-12-08T16:57:33.570Z,30.65
2022-12-08T17:01:37.684Z,39.03
2022-12-08T17:03:41.166Z,47.30
2022-12-08T17:05:43.749Z,74.25
2022-12-08T17:07:47.147Z,59.47
2022-12-08T17:09:49.025Z,57.08
2022-12-08T17:11:52.180Z,57.05
2022-12-08T17:13:54.267Z,73.63
2022-12-08T17:18:00.755Z,71.80
2022-12-08T17:22:08.817Z,96.05
2022-12-08T17:24:11.172Z,75.25
2022-12-08T17:26:14.421Z,100.60
2022-12-08T17:28:31.205Z,63.95
2022-12-08T17:30:38.993Z,63.25
2022-12-08T17:32:41.518Z,56.72
2022-12-08T17:34:43.456Z,62.78
2022-12-08T17:36:46.661Z,50.33
2022-12-08T17:38:48.665Z,51.95
2022-12-08T17:43:00.317Z,61.15
2022-12-08T17:47:05.317Z,50.83
2022-12-08T17:49:26.987Z,50.67
2022-12-08T17:51:28.878Z,61.35
2022-12-08T17:53:35.762Z,41.50
2022-12-08T17:55:40.941Z,49.47
2022-12-08T17:57:43.001Z,31.90
2022-12-08T18:01:46.715Z,33.30
2022-12-08T20:14:22.618Z,66.72
2022-12-08T20:16:24.649Z,58.75
2022-12-08T20:20:30.393Z,40.45
2022-12-08T20:22:32.312Z,42.85
2022-12-08T20:24:35.544Z,58.80
2022-12-08T20:26:37.598Z,69.70
2022-12-08T20:30:43.116Z,43.33
2022-12-08T20:32:45.632Z,33.85
2022-12-08T20:34:47.536Z,36.30
2022-12-08T20:36:49.477Z,37.90
2022-12-08T20:38:53.276Z,42.20
2022-12-08T20:40:56.429Z,36.72
2022-12-08T20:42:58.349Z,55.78
2022-12-08T20:45:00.247Z,39.20
2022-12-08T20:47:02.209Z,39.53
2022-12-08T20:51:07.958Z,55.15
2022-12-08T20:53:09.923Z,38.50
2022-12-08T20:55:12.298Z,46.03
2022-12-08T20:57:14.516Z,40.10
2022-12-08T20:59:18.099Z,34.17
2022-12-08T21:01:22.557Z,41.55
2022-12-08T21:03:24.754Z,42.80
2022-12-08T21:05:28.002Z,34.53
2022-12-08T21:07:30.308Z,35.72
2022-12-08T21:11:34.466Z,33.63
2022-12-08T21:15:46.574Z,33.50
2022-12-08T21:17:48.883Z,30.80
2022-12-08T21:19:50.865Z,38.45
2022-12-08T21:21:52.812Z,28.02
2022-12-08T21:23:55.338Z,32.15
2022-12-08T21:25:57.647Z,35.90
2022-12-08T21:27:59.777Z,43.08
2022-12-08T21:32:03.899Z,27.55
2022-12-08T21:34:06.186Z,25.73
2022-12-08T21:38:12.418Z,38.13
2022-12-08T21:42:35.565Z,42.20
2022-12-08T21:44:37.861Z,37.17
2022-12-08T21:46:40.133Z,85.30
2022-12-08T21:48:42.296Z,27.80
2022-12-08T21:50:44.519Z,30.67
2022-12-08T21:54:49.507Z,34.60
2022-12-08T21:56:51.960Z,34.58
2022-12-08T21:58:55.258Z,46.47
2022-12-08T22:00:57.458Z,48.15
2022-12-08T22:03:00.009Z,87.57
2022-12-08T22:05:03.903Z,41.83
2022-12-08T22:07:09.775Z,51.28
2022-12-08T22:09:13.840Z,43.65
2022-12-08T22:11:16.480Z,38.33
2022-12-08T22:13:18.532Z,44.50
2022-12-08T22:17:22.855Z,41.90
2022-12-08T22:19:25.104Z,32.80
2022-12-08T22:21:27.126Z,32.83
2022-12-08T22:25:31.387Z,27.98
2022-12-08T22:29:36.028Z,41.55
2022-12-08T22:31:40.558Z,65.00
2022-12-08T22:33:43.486Z,38.03
2022-12-08T22:35:54.515Z,34.40
2022-12-08T22:37:56.407Z,36.00
2022-12-08T22:39:58.568Z,37.35
2022-12-08T22:42:00.525Z,40.42
2022-12-08T22:44:06.499Z,30.75
2022-12-08T22:46:12.224Z,40.83
2022-12-08T22:48:15.106Z,49.97
2022-12-08T22:50:17.318Z,43.58
2022-12-08T22:52:19.308Z,32.58
2022-12-08T22:56:23.117Z,28.27
2022-12-08T22:58:25.210Z,28.85
2022-12-08T23:00:27.209Z,31.15
2022-12-08T23:04:31.248Z,37.45
2022-12-08T23:06:33.437Z,33.90
2022-12-08T23:08:35.882Z,31.17
2022-12-08T23:10:40.028Z,33.45
2022-12-08T23:12:42.039Z,29.73
2022-12-08T23:16:45.982Z,24.95
2022-12-08T23:18:47.984Z,31.73
2022-12-08T23:20:49.826Z,26.55
2022-12-08T23:22:51.921Z,25.00
2022-12-08T23:24:54.000Z,33.67
2022-12-08T23:28:58.592Z,43.85
2022-12-08T23:31:00.569Z,35.38
2022-12-08T23:35:05.468Z,33.88
2022-12-08T23:37:07.693Z,36.05
2022-12-08T23:39:11.450Z,39.33
2022-12-08T23:41:15.097Z,38.25
2022-12-08T23:43:17.095Z,26.30
2022-12-08T23:47:21.051Z,33.70
2022-12-08T23:49:23.606Z,41.08
2022-12-08T23:51:25.656Z,31.45
2022-12-08T23:55:30.846Z,29.20
2022-12-08T23:57:32.807Z,36.08
2022-12-08T23:59:34.868Z,41.53
